East Hazel Crest, Illinois
Current Conditions -  °F | °C
As of 3:15 AM on Saturday 22 Nov 2014 (Local Time) from KIGQ Reporting Station
Unknown Precip Unknown Precip  
Wind Chill: 23°   Ceiling: 900
Heat Index: 33°   Visibility: 3mi
Dew Point: 31°   Wind: 14mph
Humidity: 94%   Direction: 210°SSW
Pressure: 30.13"   Gusts: 20mph
Location:  41.5748°N, 87.6813°W
Report Text: KIGQ 220915Z AUTO 21012G17KT 3SM UP BKN009 OVC014 01/00 A3013 RMK AO2 P0001 T00051003
Loading
Personal Weather Stations






























Interactive Weather Map New forecast layout! Learn more

10-Day Weather Forecast

Advertisements
Track Severe Weather on mobile